sensor_id;sensor_type;location;lat;lon;timestamp;pressure;altitude;pressure_sealevel;temperature;humidity
22872;BME280;11603;44.910;8.630;2023-02-03T00:01:39;101552.59;;;7.31;100.00
22872;BME280;11603;44.910;8.630;2023-02-03T00:04:04;101550.47;;;7.14;100.00
22872;BME280;11603;44.910;8.630;2023-02-03T00:06:31;101549.09;;;7.03;100.00
22872;BME280;11603;44.910;8.630;2023-02-03T00:08:57;101553.69;;;6.98;100.00
22872;BME280;11603;44.910;8.630;2023-02-03T00:11:24;101559.25;;;6.90;100.00
22872;BME280;11603;44.910;8.630;2023-02-03T00:13:50;101555.75;;;6.88;100.00
22872;BME280;11603;44.910;8.630;2023-02-03T00:16:15;101551.06;;;6.96;100.00
22872;BME280;11603;44.910;8.630;2023-02-03T00:18:41;101556.28;;;6.99;100.00
22872;BME280;11603;44.910;8.630;2023-02-03T00:21:06;101555.47;;;6.97;100.00
22872;BME280;11603;44.910;8.630;2023-02-03T00:23:32;101558.28;;;6.93;100.00
22872;BME280;11603;44.910;8.630;2023-02-03T00:26:05;101553.53;;;7.02;100.00
22872;BME280;11603;44.910;8.630;2023-02-03T00:28:31;101563.38;;;7.00;100.00
22872;BME280;11603;44.910;8.630;2023-02-03T00:30:57;101561.69;;;6.96;100.00
22872;BME280;11603;44.910;8.630;2023-02-03T00:33:22;101573.09;;;7.01;100.00
22872;BME280;11603;44.910;8.630;2023-02-03T00:35:48;101556.97;;;7.06;100.00
22872;BME280;11603;44.910;8.630;2023-02-03T00:38:14;101550.59;;;7.11;100.00
22872;BME280;11603;44.910;8.630;2023-02-03T00:40:40;101549.66;;;7.12;100.00
22872;BME280;11603;44.910;8.630;2023-02-03T00:43:06;101546.25;;;7.07;100.00
22872;BME280;11603;44.910;8.630;2023-02-03T00:45:31;101555.13;;;7.08;100.00
22872;BME280;11603;44.910;8.630;2023-02-03T00:47:57;101558.91;;;7.01;100.00
22872;BME280;11603;44.910;8.630;2023-02-03T00:50:22;101565.16;;;7.00;100.00
22872;BME280;11603;44.910;8.630;2023-02-03T00:52:48;101559.97;;;6.95;100.00
22872;BME280;11603;44.910;8.630;2023-02-03T00:55:14;101562.00;;;6.87;100.00
22872;BME280;11603;44.910;8.630;2023-02-03T00:57:40;101564.91;;;6.79;100.00
22872;BME280;11603;44.910;8.630;2023-02-03T01:00:06;101561.63;;;6.70;100.00
22872;BME280;11603;44.910;8.630;2023-02-03T01:02:32;101560.06;;;6.64;100.00
22872;BME280;11603;44.910;8.630;2023-02-03T01:04:57;101563.72;;;6.60;100.00
22872;BME280;11603;44.910;8.630;2023-02-03T01:07:24;101558.66;;;6.53;100.00
22872;BME280;11603;44.910;8.630;2023-02-03T01:09:50;101566.03;;;6.43;100.00
22872;BME280;11603;44.910;8.630;2023-02-03T01:12:15;101566.41;;;6.29;100.00
22872;BME280;11603;44.910;8.630;2023-02-03T01:14:41;101575.56;;;6.19;100.00
22872;BME280;11603;44.910;8.630;2023-02-03T01:17:07;101571.53;;;6.06;100.00
22872;BME280;11603;44.910;8.630;2023-02-03T01:19:32;101575.22;;;6.01;100.00
22872;BME280;11603;44.910;8.630;2023-02-03T01:21:58;101570.09;;;5.93;100.00
22872;BME280;11603;44.910;8.630;2023-02-03T01:24:24;101571.34;;;5.78;100.00
22872;BME280;11603;44.910;8.630;2023-02-03T01:26:49;101579.31;;;5.78;100.00
22872;BME280;11603;44.910;8.630;2023-02-03T01:29:15;101568.56;;;5.83;100.00
22872;BME280;11603;44.910;8.630;2023-02-03T01:31:41;101567.44;;;5.93;100.00
22872;BME280;11603;44.910;8.630;2023-02-03T01:34:10;101566.44;;;5.97;100.00
22872;BME280;11603;44.910;8.630;2023-02-03T01:36:37;101567.56;;;5.88;100.00
22872;BME280;11603;44.910;8.630;2023-02-03T01:39:04;101560.59;;;5.83;100.00
22872;BME280;11603;44.910;8.630;2023-02-03T01:41:35;101554.50;;;5.81;100.00
22872;BME280;11603;44.910;8.630;2023-02-03T01:44:34;101555.47;;;5.77;100.00
22872;BME280;11603;44.910;8.630;2023-02-03T01:47:04;101552.16;;;5.69;100.00
22872;BME280;11603;44.910;8.630;2023-02-03T01:49:36;101552.59;;;5.52;100.00
22872;BME280;11603;44.910;8.630;2023-02-03T01:52:03;101551.75;;;5.50;100.00
22872;BME280;11603;44.910;8.630;2023-02-03T01:54:32;101547.44;;;5.46;100.00
22872;BME280;11603;44.910;8.630;2023-02-03T01:57:04;101549.66;;;5.63;100.00
22872;BME280;11603;44.910;8.630;2023-02-03T01:59:30;101545.81;;;5.74;100.00
22872;BME280;11603;44.910;8.630;2023-02-03T02:01:59;101540.66;;;5.68;100.00
22872;BME280;11603;44.910;8.630;2023-02-03T02:04:30;101544.31;;;5.64;100.00
22872;BME280;11603;44.910;8.630;2023-02-03T02:06:58;101550.44;;;5.66;100.00
22872;BME280;11603;44.910;8.630;2023-02-03T02:09:25;101539.19;;;5.57;100.00
22872;BME280;11603;44.910;8.630;2023-02-03T02:11:51;101560.16;;;5.67;100.00
22872;BME280;11603;44.910;8.630;2023-02-03T02:14:16;101544.78;;;5.80;100.00
22872;BME280;11603;44.910;8.630;2023-02-03T02:22:19;101549.75;;;5.60;100.00
22872;BME280;11603;44.910;8.630;2023-02-03T02:25:27;101546.16;;;5.61;100.00
22872;BME280;11603;44.910;8.630;2023-02-03T02:34:04;101536.63;;;5.53;100.00
22872;BME280;11603;44.910;8.630;2023-02-03T02:39:26;101536.69;;;5.50;100.00
22872;BME280;11603;44.910;8.630;2023-02-03T02:44:58;101542.53;;;5.31;100.00
22872;BME280;11603;44.910;8.630;2023-02-03T02:47:27;101546.16;;;5.27;100.00
22872;BME280;11603;44.910;8.630;2023-02-03T02:50:00;101541.69;;;5.29;100.00
22872;BME280;11603;44.910;8.630;2023-02-03T02:52:30;101535.41;;;5.33;100.00
22872;BME280;11603;44.910;8.630;2023-02-03T02:55:09;101534.53;;;5.32;100.00
22872;BME280;11603;44.910;8.630;2023-02-03T02:57:36;101539.00;;;5.30;100.00
22872;BME280;11603;44.910;8.630;2023-02-03T03:00:04;101536.50;;;5.24;100.00
22872;BME280;11603;44.910;8.630;2023-02-03T03:02:33;101530.75;;;5.07;100.00
22872;BME280;11603;44.910;8.630;2023-02-03T03:05:04;101537.13;;;4.98;100.00
22872;BME280;11603;44.910;8.630;2023-02-03T03:07:38;101531.91;;;4.97;100.00
22872;BME280;11603;44.910;8.630;2023-02-03T03:10:09;101536.94;;;5.07;100.00
22872;BME280;11603;44.910;8.630;2023-02-03T03:12:41;101536.25;;;4.98;100.00
22872;BME280;11603;44.910;8.630;2023-02-03T03:15:13;101536.53;;;4.87;100.00
22872;BME280;11603;44.910;8.630;2023-02-03T03:17:51;101523.47;;;4.80;100.00
22872;BME280;11603;44.910;8.630;2023-02-03T03:20:22;101524.50;;;4.73;100.00
22872;BME280;11603;44.910;8.630;2023-02-03T03:22:58;101533.56;;;4.62;100.00
22872;BME280;11603;44.910;8.630;2023-02-03T03:25:43;101531.47;;;4.77;100.00
22872;BME280;11603;44.910;8.630;2023-02-03T03:28:18;101548.09;;;4.85;100.00
22872;BME280;11603;44.910;8.630;2023-02-03T03:30:48;101538.50;;;4.79;100.00
22872;BME280;11603;44.910;8.630;2023-02-03T03:33:14;101534.19;;;4.75;100.00
22872;BME280;11603;44.910;8.630;2023-02-03T03:38:54;101554.16;;;4.88;100.00
22872;BME280;11603;44.910;8.630;2023-02-03T03:41:26;101567.19;;;4.99;100.00
22872;BME280;11603;44.910;8.630;2023-02-03T03:43:58;101564.09;;;4.80;100.00
22872;BME280;11603;44.910;8.630;2023-02-03T03:46:34;101574.69;;;4.80;100.00
22872;BME280;11603;44.910;8.630;2023-02-03T03:49:04;101568.31;;;4.87;100.00
22872;BME280;11603;44.910;8.630;2023-02-03T03:51:53;101550.91;;;4.77;100.00
22872;BME280;11603;44.910;8.630;2023-02-03T03:54:22;101554.28;;;4.84;100.00
22872;BME280;11603;44.910;8.630;2023-02-03T03:56:55;101571.72;;;4.94;100.00
22872;BME280;11603;44.910;8.630;2023-02-03T03:59:24;101566.31;;;4.98;100.00
22872;BME280;11603;44.910;8.630;2023-02-03T04:01:51;101545.03;;;5.01;100.00
22872;BME280;11603;44.910;8.630;2023-02-03T04:04:17;101552.41;;;4.89;100.00
22872;BME280;11603;44.910;8.630;2023-02-03T04:06:44;101547.22;;;4.83;100.00
22872;BME280;11603;44.910;8.630;2023-02-03T04:09:09;101565.75;;;4.84;100.00
22872;BME280;11603;44.910;8.630;2023-02-03T04:11:35;101577.03;;;4.92;100.00
22872;BME280;11603;44.910;8.630;2023-02-03T04:14:19;101572.34;;;5.05;100.00
22872;BME280;11603;44.910;8.630;2023-02-03T04:16:44;101576.66;;;5.09;100.00
22872;BME280;11603;44.910;8.630;2023-02-03T04:19:10;101586.22;;;5.16;100.00
22872;BME280;11603;44.910;8.630;2023-02-03T04:21:35;101592.44;;;5.15;100.00
22872;BME280;11603;44.910;8.630;2023-02-03T04:24:01;101595.09;;;5.13;100.00
22872;BME280;11603;44.910;8.630;2023-02-03T04:26:26;101581.97;;;5.09;100.00
22872;BME280;11603;44.910;8.630;2023-02-03T04:28:52;101583.09;;;4.99;100.00
22872;BME280;11603;44.910;8.630;2023-02-03T04:31:17;101601.78;;;4.93;100.00
22872;BME280;11603;44.910;8.630;2023-02-03T04:33:43;101601.47;;;5.06;100.00
22872;BME280;11603;44.910;8.630;2023-02-03T04:36:08;101606.56;;;5.16;100.00
22872;BME280;11603;44.910;8.630;2023-02-03T04:38:34;101598.78;;;5.08;100.00
22872;BME280;11603;44.910;8.630;2023-02-03T04:41:00;101608.34;;;5.15;100.00
22872;BME280;11603;44.910;8.630;2023-02-03T04:43:25;101613.38;;;5.26;100.00
22872;BME280;11603;44.910;8.630;2023-02-03T04:45:51;101618.00;;;5.18;100.00
22872;BME280;11603;44.910;8.630;2023-02-03T04:48:17;101617.16;;;5.16;100.00
22872;BME280;11603;44.910;8.630;2023-02-03T04:50:42;101618.09;;;5.13;100.00
22872;BME280;11603;44.910;8.630;2023-02-03T04:53:08;101612.91;;;5.08;100.00
22872;BME280;11603;44.910;8.630;2023-02-03T04:55:33;101616.78;;;4.94;100.00
22872;BME280;11603;44.910;8.630;2023-02-03T04:57:59;101625.81;;;4.85;100.00
22872;BME280;11603;44.910;8.630;2023-02-03T05:00:26;101612.63;;;4.82;100.00
22872;BME280;11603;44.910;8.630;2023-02-03T05:02:52;101603.97;;;4.76;100.00
22872;BME280;11603;44.910;8.630;2023-02-03T05:05:17;101615.44;;;4.76;100.00
22872;BME280;11603;44.910;8.630;2023-02-03T05:07:43;101622.34;;;4.82;100.00
22872;BME280;11603;44.910;8.630;2023-02-03T05:10:09;101618.09;;;4.76;100.00
22872;BME280;11603;44.910;8.630;2023-02-03T05:12:35;101611.91;;;4.76;100.00
22872;BME280;11603;44.910;8.630;2023-02-03T05:15:00;101621.59;;;4.77;100.00
22872;BME280;11603;44.910;8.630;2023-02-03T05:17:26;101624.09;;;4.83;100.00
22872;BME280;11603;44.910;8.630;2023-02-03T05:19:51;101630.22;;;4.86;100.00
22872;BME280;11603;44.910;8.630;2023-02-03T05:22:17;101631.38;;;4.73;100.00
22872;BME280;11603;44.910;8.630;2023-02-03T05:24:42;101636.22;;;4.53;100.00
22872;BME280;11603;44.910;8.630;2023-02-03T05:27:08;101635.13;;;4.20;100.00
22872;BME280;11603;44.910;8.630;2023-02-03T05:29:33;101635.78;;;3.85;100.00
22872;BME280;11603;44.910;8.630;2023-02-03T05:31:59;101637.81;;;3.71;100.00
22872;BME280;11603;44.910;8.630;2023-02-03T05:34:25;101643.09;;;3.71;100.00
22872;BME280;11603;44.910;8.630;2023-02-03T05:36:50;101645.59;;;3.78;100.00
22872;BME280;11603;44.910;8.630;2023-02-03T05:39:16;101637.56;;;3.83;100.00
22872;BME280;11603;44.910;8.630;2023-02-03T05:41:41;101636.59;;;3.89;100.00
22872;BME280;11603;44.910;8.630;2023-02-03T05:44:24;101625.13;;;3.88;100.00
22872;BME280;11603;44.910;8.630;2023-02-03T05:46:52;101634.91;;;3.84;100.00
22872;BME280;11603;44.910;8.630;2023-02-03T05:49:17;101621.75;;;3.81;100.00
22872;BME280;11603;44.910;8.630;2023-02-03T05:51:45;101627.06;;;3.80;100.00
22872;BME280;11603;44.910;8.630;2023-02-03T05:54:11;101634.97;;;3.81;100.00
22872;BME280;11603;44.910;8.630;2023-02-03T05:56:37;101638.50;;;3.82;100.00
22872;BME280;11603;44.910;8.630;2023-02-03T05:59:03;101637.50;;;3.88;100.00
22872;BME280;11603;44.910;8.630;2023-02-03T06:01:28;101626.13;;;3.82;100.00
22872;BME280;11603;44.910;8.630;2023-02-03T06:03:54;101630.31;;;3.94;100.00
22872;BME280;11603;44.910;8.630;2023-02-03T06:06:20;101635.63;;;3.93;100.00
22872;BME280;11603;44.910;8.630;2023-02-03T06:08:45;101630.41;;;3.90;100.00
22872;BME280;11603;44.910;8.630;2023-02-03T06:11:11;101639.22;;;3.92;100.00
22872;BME280;11603;44.910;8.630;2023-02-03T06:13:37;101641.59;;;4.04;100.00
22872;BME280;11603;44.910;8.630;2023-02-03T06:16:03;101642.44;;;4.07;100.00
22872;BME280;11603;44.910;8.630;2023-02-03T06:18:28;101644.03;;;4.16;100.00
22872;BME280;11603;44.910;8.630;2023-02-03T06:20:54;101637.88;;;4.15;100.00
22872;BME280;11603;44.910;8.630;2023-02-03T06:23:20;101640.41;;;4.21;100.00
22872;BME280;11603;44.910;8.630;2023-02-03T06:25:49;101632.56;;;4.15;100.00
22872;BME280;11603;44.910;8.630;2023-02-03T06:28:15;101639.44;;;4.24;100.00
22872;BME280;11603;44.910;8.630;2023-02-03T06:30:41;101641.06;;;4.33;100.00
22872;BME280;11603;44.910;8.630;2023-02-03T06:33:07;101646.16;;;4.42;100.00
22872;BME280;11603;44.910;8.630;2023-02-03T06:35:33;101655.84;;;4.44;100.00
22872;BME280;11603;44.910;8.630;2023-02-03T06:37:59;101657.53;;;4.48;100.00
22872;BME280;11603;44.910;8.630;2023-02-03T06:40:25;101681.19;;;4.57;100.00
22872;BME280;11603;44.910;8.630;2023-02-03T06:42:50;101668.59;;;4.67;100.00
22872;BME280;11603;44.910;8.630;2023-02-03T06:45:16;101666.63;;;4.77;100.00
22872;BME280;11603;44.910;8.630;2023-02-03T06:47:43;101671.78;;;4.86;100.00
22872;BME280;11603;44.910;8.630;2023-02-03T06:50:11;101674.22;;;4.93;100.00
22872;BME280;11603;44.910;8.630;2023-02-03T06:52:37;101682.28;;;4.90;100.00
22872;BME280;11603;44.910;8.630;2023-02-03T06:55:04;101669.03;;;4.89;100.00
22872;BME280;11603;44.910;8.630;2023-02-03T06:57:30;101670.69;;;4.94;100.00
22872;BME280;11603;44.910;8.630;2023-02-03T06:59:55;101676.66;;;5.04;100.00
22872;BME280;11603;44.910;8.630;2023-02-03T07:02:21;101674.84;;;5.06;100.00
22872;BME280;11603;44.910;8.630;2023-02-03T07:04:46;101679.03;;;5.18;100.00
22872;BME280;11603;44.910;8.630;2023-02-03T07:07:12;101670.91;;;5.24;100.00
22872;BME280;11603;44.910;8.630;2023-02-03T07:09:38;101666.56;;;5.20;100.00
22872;BME280;11603;44.910;8.630;2023-02-03T07:12:05;101674.78;;;5.09;100.00
22872;BME280;11603;44.910;8.630;2023-02-03T07:14:31;101682.59;;;5.15;100.00
22872;BME280;11603;44.910;8.630;2023-02-03T07:16:56;101684.63;;;5.02;100.00
22872;BME280;11603;44.910;8.630;2023-02-03T07:19:22;101670.78;;;4.90;100.00
22872;BME280;11603;44.910;8.630;2023-02-03T07:21:47;101677.09;;;4.84;100.00
22872;BME280;11603;44.910;8.630;2023-02-03T07:24:13;101676.19;;;4.85;100.00
22872;BME280;11603;44.910;8.630;2023-02-03T07:26:38;101677.75;;;4.95;100.00
22872;BME280;11603;44.910;8.630;2023-02-03T07:29:04;101684.75;;;4.98;100.00
22872;BME280;11603;44.910;8.630;2023-02-03T07:31:30;101690.75;;;5.06;100.00
22872;BME280;11603;44.910;8.630;2023-02-03T07:33:55;101672.97;;;5.11;100.00
22872;BME280;11603;44.910;8.630;2023-02-03T07:36:21;101662.16;;;5.19;100.00
22872;BME280;11603;44.910;8.630;2023-02-03T07:38:47;101657.16;;;5.06;100.00
22872;BME280;11603;44.910;8.630;2023-02-03T07:41:12;101673.94;;;5.07;100.00
22872;BME280;11603;44.910;8.630;2023-02-03T07:43:37;101685.44;;;5.07;100.00
22872;BME280;11603;44.910;8.630;2023-02-03T07:46:03;101673.94;;;5.07;100.00
22872;BME280;11603;44.910;8.630;2023-02-03T07:48:29;101672.19;;;5.07;100.00
22872;BME280;11603;44.910;8.630;2023-02-03T07:50:54;101679.09;;;5.13;100.00
22872;BME280;11603;44.910;8.630;2023-02-03T07:53:20;101690.31;;;5.26;100.00
22872;BME280;11603;44.910;8.630;2023-02-03T07:55:45;101689.41;;;5.27;100.00
22872;BME280;11603;44.910;8.630;2023-02-03T07:58:11;101695.47;;;5.32;100.00
22872;BME280;11603;44.910;8.630;2023-02-03T08:00:36;101699.81;;;5.36;100.00
22872;BME280;11603;44.910;8.630;2023-02-03T08:03:02;101691.97;;;5.30;100.00
22872;BME280;11603;44.910;8.630;2023-02-03T08:05:28;101704.53;;;5.23;100.00
22872;BME280;11603;44.910;8.630;2023-02-03T08:07:55;101716.50;;;5.39;100.00
22872;BME280;11603;44.910;8.630;2023-02-03T08:10:21;101727.22;;;5.35;100.00
22872;BME280;11603;44.910;8.630;2023-02-03T08:12:47;101754.06;;;5.21;100.00
22872;BME280;11603;44.910;8.630;2023-02-03T08:15:13;101754.38;;;5.07;100.00
22872;BME280;11603;44.910;8.630;2023-02-03T08:17:38;101742.75;;;5.13;100.00
22872;BME280;11603;44.910;8.630;2023-02-03T08:20:07;101732.97;;;5.17;100.00
22872;BME280;11603;44.910;8.630;2023-02-03T08:22:33;101732.66;;;5.30;100.00
22872;BME280;11603;44.910;8.630;2023-02-03T08:24:58;101733.25;;;5.43;100.00
22872;BME280;11603;44.910;8.630;2023-02-03T08:27:24;101734.59;;;5.61;100.00
22872;BME280;11603;44.910;8.630;2023-02-03T08:29:49;101732.72;;;5.66;100.00
22872;BME280;11603;44.910;8.630;2023-02-03T08:32:17;101738.88;;;5.66;100.00
22872;BME280;11603;44.910;8.630;2023-02-03T08:34:43;101722.25;;;5.60;100.00
22872;BME280;11603;44.910;8.630;2023-02-03T08:37:11;101716.22;;;5.53;100.00
22872;BME280;11603;44.910;8.630;2023-02-03T08:39:37;101730.34;;;5.53;100.00
22872;BME280;11603;44.910;8.630;2023-02-03T08:42:02;101726.19;;;5.42;100.00
22872;BME280;11603;44.910;8.630;2023-02-03T08:44:29;101736.91;;;5.39;100.00
22872;BME280;11603;44.910;8.630;2023-02-03T08:46:55;101748.34;;;5.39;100.00
22872;BME280;11603;44.910;8.630;2023-02-03T08:49:21;101736.69;;;5.48;100.00
22872;BME280;11603;44.910;8.630;2023-02-03T08:51:47;101736.69;;;5.48;100.00
22872;BME280;11603;44.910;8.630;2023-02-03T08:54:13;101744.25;;;5.25;100.00
22872;BME280;11603;44.910;8.630;2023-02-03T08:56:39;101744.34;;;5.22;100.00
22872;BME280;11603;44.910;8.630;2023-02-03T08:59:05;101758.91;;;5.44;100.00
22872;BME280;11603;44.910;8.630;2023-02-03T09:01:30;101750.69;;;5.54;100.00
22872;BME280;11603;44.910;8.630;2023-02-03T09:03:56;101730.63;;;5.80;100.00
22872;BME280;11603;44.910;8.630;2023-02-03T09:06:22;101738.22;;;5.97;100.00
22872;BME280;11603;44.910;8.630;2023-02-03T09:08:48;101742.53;;;6.34;100.00
22872;BME280;11603;44.910;8.630;2023-02-03T09:11:17;101741.78;;;6.93;100.00
22872;BME280;11603;44.910;8.630;2023-02-03T09:13:43;101736.81;;;7.41;100.00
22872;BME280;11603;44.910;8.630;2023-02-03T09:16:15;101729.41;;;7.78;100.00
22872;BME280;11603;44.910;8.630;2023-02-03T09:18:42;101735.19;;;7.91;100.00
22872;BME280;11603;44.910;8.630;2023-02-03T09:21:09;101731.84;;;7.58;100.00
22872;BME280;11603;44.910;8.630;2023-02-03T09:23:38;101728.56;;;7.76;100.00
22872;BME280;11603;44.910;8.630;2023-02-03T09:26:12;101720.25;;;8.13;100.00
22872;BME280;11603;44.910;8.630;2023-02-03T09:28:38;101713.94;;;8.16;100.00
22872;BME280;11603;44.910;8.630;2023-02-03T09:31:06;101719.56;;;8.33;100.00
22872;BME280;11603;44.910;8.630;2023-02-03T09:33:32;101724.66;;;8.40;100.00
22872;BME280;11603;44.910;8.630;2023-02-03T09:35:58;101720.19;;;8.41;100.00
22872;BME280;11603;44.910;8.630;2023-02-03T09:38:24;101721.00;;;8.17;100.00
22872;BME280;11603;44.910;8.630;2023-02-03T09:40:53;101720.03;;;8.19;100.00
22872;BME280;11603;44.910;8.630;2023-02-03T09:43:34;101715.25;;;8.30;100.00
22872;BME280;11603;44.910;8.630;2023-02-03T09:46:11;101721.16;;;8.12;100.00
22872;BME280;11603;44.910;8.630;2023-02-03T09:48:42;101723.75;;;8.41;100.00
22872;BME280;11603;44.910;8.630;2023-02-03T09:51:18;101733.66;;;8.63;100.00
22872;BME280;11603;44.910;8.630;2023-02-03T09:53:49;101730.84;;;8.66;100.00
22872;BME280;11603;44.910;8.630;2023-02-03T09:56:35;101711.34;;;8.88;100.00
22872;BME280;11603;44.910;8.630;2023-02-03T09:59:02;101706.47;;;8.76;100.00
22872;BME280;11603;44.910;8.630;2023-02-03T10:01:36;101702.66;;;8.83;100.00
22872;BME280;11603;44.910;8.630;2023-02-03T10:04:25;101689.13;;;8.88;100.00
22872;BME280;11603;44.910;8.630;2023-02-03T10:07:06;101693.38;;;8.93;100.00
22872;BME280;11603;44.910;8.630;2023-02-03T10:19:55;101697.75;;;10.47;100.00
22872;BME280;11603;44.910;8.630;2023-02-03T10:22:26;101704.63;;;10.73;100.00
22872;BME280;11603;44.910;8.630;2023-02-03T10:25:18;101700.56;;;11.03;100.00
22872;BME280;11603;44.910;8.630;2023-02-03T10:27:46;101701.00;;;11.13;100.00
22872;BME280;11603;44.910;8.630;2023-02-03T10:30:21;101691.13;;;11.32;100.00
22872;BME280;11603;44.910;8.630;2023-02-03T10:32:49;101702.88;;;11.48;100.00
22872;BME280;11603;44.910;8.630;2023-02-03T10:35:17;101703.06;;;11.81;100.00
22872;BME280;11603;44.910;8.630;2023-02-03T10:37:49;101685.34;;;11.96;100.00
22872;BME280;11603;44.910;8.630;2023-02-03T10:40:16;101684.88;;;12.05;98.74
22872;BME280;11603;44.910;8.630;2023-02-03T10:42:43;101678.41;;;11.92;98.86
22872;BME280;11603;44.910;8.630;2023-02-03T10:45:33;101675.72;;;11.92;100.00
22872;BME280;11603;44.910;8.630;2023-02-03T10:48:01;101678.59;;;12.23;97.06
22872;BME280;11603;44.910;8.630;2023-02-03T10:50:28;101669.72;;;12.38;97.13
22872;BME280;11603;44.910;8.630;2023-02-03T10:55:50;101651.50;;;12.93;93.67
22872;BME280;11603;44.910;8.630;2023-02-03T10:58:26;101651.63;;;12.92;92.20
22872;BME280;11603;44.910;8.630;2023-02-03T11:01:14;101641.75;;;13.08;91.99
22872;BME280;11603;44.910;8.630;2023-02-03T11:03:42;101636.84;;;13.32;89.97
22872;BME280;11603;44.910;8.630;2023-02-03T11:06:16;101625.75;;;13.22;94.33
22872;BME280;11603;44.910;8.630;2023-02-03T11:08:44;101615.75;;;13.40;94.50
22872;BME280;11603;44.910;8.630;2023-02-03T11:11:23;101625.31;;;13.30;93.75
22872;BME280;11603;44.910;8.630;2023-02-03T11:14:15;101621.75;;;13.61;93.53
22872;BME280;11603;44.910;8.630;2023-02-03T11:16:42;101617.44;;;13.72;94.45
22872;BME280;11603;44.910;8.630;2023-02-03T11:19:18;101618.44;;;14.01;93.49
22872;BME280;11603;44.910;8.630;2023-02-03T11:21:47;101615.69;;;14.17;92.65
22872;BME280;11603;44.910;8.630;2023-02-03T11:24:30;101608.94;;;14.24;92.81
22872;BME280;11603;44.910;8.630;2023-02-03T11:29:41;101613.81;;;14.61;91.34
22872;BME280;11603;44.910;8.630;2023-02-03T11:32:32;101609.91;;;14.81;90.27
22872;BME280;11603;44.910;8.630;2023-02-03T11:35:02;101610.91;;;15.07;89.79
22872;BME280;11603;44.910;8.630;2023-02-03T11:37:43;101618.75;;;15.24;87.52
22872;BME280;11603;44.910;8.630;2023-02-03T11:43:02;101610.09;;;15.33;85.00
22872;BME280;11603;44.910;8.630;2023-02-03T11:45:35;101590.53;;;15.30;84.43
22872;BME280;11603;44.910;8.630;2023-02-03T12:07:46;101520.69;;;15.91;87.72
22872;BME280;11603;44.910;8.630;2023-02-03T12:12:54;101520.63;;;16.31;85.44
22872;BME280;11603;44.910;8.630;2023-02-03T12:23:59;101500.84;;;16.30;88.84
22872;BME280;11603;44.910;8.630;2023-02-03T12:26:44;101493.13;;;16.49;88.30
22872;BME280;11603;44.910;8.630;2023-02-03T12:29:21;101481.38;;;16.50;90.18
22872;BME280;11603;44.910;8.630;2023-02-03T12:32:13;101466.13;;;16.62;90.72
22872;BME280;11603;44.910;8.630;2023-02-03T12:34:54;101464.22;;;16.88;89.35
22872;BME280;11603;44.910;8.630;2023-02-03T12:37:41;101464.69;;;17.06;87.91
22872;BME280;11603;44.910;8.630;2023-02-03T12:43:15;101455.06;;;17.25;87.03
22872;BME280;11603;44.910;8.630;2023-02-03T12:45:48;101448.44;;;17.29;87.96
22872;BME280;11603;44.910;8.630;2023-02-03T12:48:20;101435.91;;;17.40;88.14
22872;BME280;11603;44.910;8.630;2023-02-03T12:50:53;101431.63;;;17.48;88.77
22872;BME280;11603;44.910;8.630;2023-02-03T12:53:24;101430.72;;;17.25;90.35
22872;BME280;11603;44.910;8.630;2023-02-03T12:58:28;101417.09;;;17.03;95.44
22872;BME280;11603;44.910;8.630;2023-02-03T13:01:03;101403.56;;;17.27;94.51
22872;BME280;11603;44.910;8.630;2023-02-03T13:03:54;101400.03;;;17.49;92.98
22872;BME280;11603;44.910;8.630;2023-02-03T13:06:53;101395.13;;;17.54;91.92
22872;BME280;11603;44.910;8.630;2023-02-03T13:14:46;101376.75;;;17.81;93.77
22872;BME280;11603;44.910;8.630;2023-02-03T13:17:17;101361.84;;;17.64;97.39
22872;BME280;11603;44.910;8.630;2023-02-03T13:19:51;101361.63;;;17.67;98.04
22872;BME280;11603;44.910;8.630;2023-02-03T13:22:18;101357.78;;;17.70;99.87
22872;BME280;11603;44.910;8.630;2023-02-03T13:24:53;101360.00;;;17.76;99.63
22872;BME280;11603;44.910;8.630;2023-02-03T13:35:39;101326.06;;;18.05;92.86
22872;BME280;11603;44.910;8.630;2023-02-03T13:43:42;101313.97;;;18.09;87.16
22872;BME280;11603;44.910;8.630;2023-02-03T13:46:21;101318.25;;;18.23;88.84
22872;BME280;11603;44.910;8.630;2023-02-03T13:48:48;101312.59;;;18.26;87.94
22872;BME280;11603;44.910;8.630;2023-02-03T13:51:19;101315.88;;;18.41;87.06
22872;BME280;11603;44.910;8.630;2023-02-03T13:53:46;101322.63;;;18.46;87.39
22872;BME280;11603;44.910;8.630;2023-02-03T13:56:22;101326.66;;;18.63;86.43
22872;BME280;11603;44.910;8.630;2023-02-03T14:01:37;101329.69;;;18.70;82.77
22872;BME280;11603;44.910;8.630;2023-02-03T14:04:52;101331.31;;;18.72;84.47
22872;BME280;11603;44.910;8.630;2023-02-03T14:12:17;101346.66;;;18.40;83.60
22872;BME280;11603;44.910;8.630;2023-02-03T14:19:59;101357.59;;;18.38;82.90
22872;BME280;11603;44.910;8.630;2023-02-03T14:22:24;101359.13;;;18.20;82.46
22872;BME280;11603;44.910;8.630;2023-02-03T14:24:53;101355.44;;;18.21;82.36
22872;BME280;11603;44.910;8.630;2023-02-03T14:27:25;101357.03;;;18.24;84.01
22872;BME280;11603;44.910;8.630;2023-02-03T14:30:07;101360.22;;;18.17;84.71
22872;BME280;11603;44.910;8.630;2023-02-03T14:32:53;101366.28;;;18.21;83.45
22872;BME280;11603;44.910;8.630;2023-02-03T14:35:29;101363.09;;;18.16;81.24
22872;BME280;11603;44.910;8.630;2023-02-03T14:37:59;101352.47;;;18.13;81.75
22872;BME280;11603;44.910;8.630;2023-02-03T14:40:51;101353.84;;;17.96;82.84
22872;BME280;11603;44.910;8.630;2023-02-03T14:43:33;101361.63;;;17.90;83.50
22872;BME280;11603;44.910;8.630;2023-02-03T15:02:21;101362.09;;;17.61;87.73
22872;BME280;11603;44.910;8.630;2023-02-03T15:04:52;101355.22;;;17.68;86.80
22872;BME280;11603;44.910;8.630;2023-02-03T15:10:25;101351.34;;;17.38;90.92